MMMZ/MZT METAR and TAF weather

Enter ICAO airport designator
Station Type Date Time Source
MMMZ METAR 2020/07/11 01:47 UTC NOAA

MMMZ 110147Z 30013KT 12SM FEW020CB SCT070 BKN230 31/23 A2988 RMK 8/378


Station Type Date Time Source
MMMZ Decoded METAR 2020/07/11 01:47 UTC NOAA

Mazatlan / G. Buelna, Mexico (MMMZ) 23-10N 106-16W
Jul 10, 2020 - 09:47 PM EDT / 2020.07.11 0147 UTC
Wind: from the WNW (300 degrees) at 15 MPH (13 KT):0
Visibility: 12 mile(s):0
Sky conditions: mostly cloudy
Weather: Cumulonimbus clouds observed
Temperature: 87 F (31 C)
Heat index: 93.9 F (34.4 C):1
Dew Point: 73 F (23 C)
Relative Humidity: 62%
Pressure (altimeter): 29.88 in. Hg (1011 hPa)
ob: MMMZ 110147Z 30013KT 12SM FEW020CB SCT070 BKN230 31/23 A2988 RMK 8/378
cycle: 2

Station Type Date Time Source
MMMZ TAF 2020/07/10 18:51 UTC NOAA

TAF MMMZ 101643Z 1018/1124 20012KT P6SM SCT100 TX35/1022Z TN26/1113Z
FM110000 09010KT P6SM SCT030
FM110600 00000KT P6SM BKN250
FM111800 18012KT P6SM SCT100

Example: see airport list